Time;durP1;ratioP1;P1;durP2;ratioP2;P2;SDS_P1;SDS_P2;PMS_P1;PMS_P2;Temp;Humidity;BMP_temperature;BMP_pressure;BME280_temperature;BME280_humidity;BME280_pressure;Samples;Min_cycle;Max_cycle;Signal;HPM_P1;HPM_P2
2020/12/22 00:00:34;;;;;;;12.35;8.75;;;2.70;90.50;;;;;;5048360;28;20053;-84
2020/12/22 00:03:00;;;;;;;14.25;9.63;;;2.70;90.50;;;;;;5043004;28;20374;-82
2020/12/22 00:05:26;;;;;;;11.38;8.18;;;2.60;90.50;;;;;;5034106;28;20029;-84
2020/12/22 00:07:51;;;;;;;12.18;8.02;;;2.60;90.50;;;;;;5043604;28;20021;-82
2020/12/22 00:10:17;;;;;;;10.15;7.80;;;2.60;90.50;;;;;;5058460;28;20029;-82
2020/12/22 00:12:43;;;;;;;15.95;8.82;;;2.60;90.80;;;;;;5026106;28;20377;-84
2020/12/22 00:15:10;;;;;;;13.10;8.50;;;2.60;90.50;;;;;;5056729;28;20040;-83
2020/12/22 00:17:44;;;;;;;11.40;8.75;;;2.50;90.50;;;;;;5052820;28;20025;-84
2020/12/22 00:20:11;;;;;;;14.80;9.13;;;2.50;90.60;;;;;;5041921;28;20025;-83
2020/12/22 00:22:37;;;;;;;13.43;8.52;;;2.50;90.70;;;;;;5053130;28;20443;-84
2020/12/22 00:25:03;;;;;;;11.38;8.27;;;2.50;90.70;;;;;;5053796;28;20025;-84
2020/12/22 00:27:33;;;;;;;13.37;8.00;;;2.50;90.80;;;;;;5053531;28;20021;-84
2020/12/22 00:30:02;;;;;;;13.98;9.18;;;2.50;90.80;;;;;;5053508;28;20266;-83
2020/12/22 00:32:28;;;;;;;10.63;6.85;;;2.50;90.70;;;;;;5054537;28;20370;-82
2020/12/22 00:34:54;;;;;;;14.88;9.68;;;2.50;90.70;;;;;;5056030;28;20013;-83
2020/12/22 00:37:20;;;;;;;11.45;7.35;;;2.50;90.80;;;;;;5054046;28;20041;-83
2020/12/22 00:39:46;;;;;;;12.48;7.90;;;2.50;90.80;;;;;;5038046;28;20056;-83
2020/12/22 00:42:12;;;;;;;12.75;8.20;;;2.40;90.80;;;;;;5040866;28;20029;-84
2020/12/22 00:44:37;;;;;;;15.50;10.40;;;2.40;91.00;;;;;;5053900;28;20025;-85
2020/12/22 00:47:03;;;;;;;17.15;10.35;;;2.40;91.10;;;;;;5053980;28;20100;-84
2020/12/22 00:49:29;;;;;;;16.80;9.63;;;2.40;91.10;;;;;;5053991;28;20067;-84
2020/12/22 00:51:59;;;;;;;16.15;9.27;;;2.50;91.10;;;;;;5053669;28;20495;-83
2020/12/22 00:54:27;;;;;;;14.75;8.98;;;2.60;91.30;;;;;;5049939;28;20045;-84
2020/12/22 00:56:56;;;;;;;15.80;9.73;;;2.50;91.00;;;;;;5015989;28;20041;-86
2020/12/22 00:59:22;;;;;;;18.00;11.85;;;2.50;91.20;;;;;;5035256;28;20048;-85
2020/12/22 01:01:48;;;;;;;16.63;10.38;;;2.50;91.20;;;;;;5035793;28;20021;-85
2020/12/22 01:04:14;;;;;;;16.48;11.68;;;2.50;91.20;;;;;;5053699;28;20466;-84
2020/12/22 01:06:40;;;;;;;15.40;10.93;;;2.60;91.30;;;;;;5053852;28;20020;-84
2020/12/22 01:09:07;;;;;;;20.05;12.55;;;2.50;91.20;;;;;;5056862;28;20024;-82
2020/12/22 01:11:35;;;;;;;18.57;11.10;;;2.50;91.20;;;;;;5073615;28;20164;-83
2020/12/22 01:14:01;;;;;;;15.73;10.88;;;2.50;91.20;;;;;;5060190;28;20253;-84
2020/12/22 01:16:26;;;;;;;16.65;10.77;;;2.50;91.30;;;;;;5038019;28;20482;-84
2020/12/22 01:18:52;;;;;;;20.30;12.88;;;2.40;91.40;;;;;;5041139;28;20057;-83
2020/12/22 01:21:24;;;;;;;17.48;11.70;;;2.40;91.50;;;;;;5032383;28;20482;-83
2020/12/22 01:23:50;;;;;;;17.58;11.80;;;2.40;91.50;;;;;;5020451;28;20028;-83
2020/12/22 01:26:24;;;;;;;19.88;13.85;;;2.40;91.50;;;;;;5051529;28;20088;-81
2020/12/22 01:28:50;;;;;;;20.00;11.45;;;2.40;91.50;;;;;;5048893;28;20025;-83
2020/12/22 01:31:24;;;;;;;21.13;12.70;;;2.40;91.50;;;;;;5042569;28;20025;-82
2020/12/22 01:33:50;;;;;;;17.63;12.77;;;2.40;91.60;;;;;;5000704;28;20482;-84
2020/12/22 01:36:16;;;;;;;23.33;13.70;;;2.40;91.50;;;;;;5034409;28;20048;-84
2020/12/22 01:38:42;;;;;;;22.02;12.82;;;2.40;91.50;;;;;;5033884;28;20021;-83
2020/12/22 01:41:08;;;;;;;17.50;12.32;;;2.50;91.60;;;;;;5035109;28;20048;-83
2020/12/22 01:43:34;;;;;;;18.98;12.10;;;2.50;91.50;;;;;;5044908;28;20027;-84
2020/12/22 01:45:59;;;;;;;23.42;13.32;;;2.50;91.40;;;;;;5042796;28;20029;-82
2020/12/22 01:48:27;;;;;;;23.45;12.77;;;2.40;91.50;;;;;;5037655;28;20021;-83
2020/12/22 01:50:53;;;;;;;23.90;12.95;;;2.40;91.50;;;;;;5033013;28;20113;-82
2020/12/22 01:53:19;;;;;;;21.42;12.48;;;2.40;91.50;;;;;;5034172;28;20501;-83
2020/12/22 01:55:45;;;;;;;20.83;13.00;;;2.40;91.60;;;;;;5037005;28;20045;-84
2020/12/22 01:58:11;;;;;;;18.95;12.88;;;2.50;91.50;;;;;;5036578;28;20494;-84
2020/12/22 02:00:37;;;;;;;21.42;13.50;;;2.50;91.50;;;;;;5036362;28;20041;-84
2020/12/22 02:03:06;;;;;;;22.38;12.90;;;2.50;91.50;;;;;;5036968;28;20466;-83
2020/12/22 02:05:33;;;;;;;23.05;13.25;;;2.50;91.40;;;;;;5036626;28;20021;-84
2020/12/22 02:08:00;;;;;;;20.13;13.23;;;2.50;91.40;;;;;;5034677;28;20036;-83
2020/12/22 02:10:26;;;;;;;20.88;12.32;;;2.50;91.30;;;;;;5036317;28;20029;-84
2020/12/22 02:12:52;;;;;;;24.45;12.35;;;2.50;91.30;;;;;;5035989;28;20465;-84
2020/12/22 02:15:17;;;;;;;17.05;10.90;;;2.50;91.40;;;;;;5035699;28;20056;-84
2020/12/22 02:17:45;;;;;;;23.35;14.05;;;2.50;91.40;;;;;;5036088;28;20056;-83
2020/12/22 02:20:11;;;;;;;;;;;2.40;91.30;;;;;;5036398;28;20017;-84
2020/12/22 02:22:37;;;;;;;19.73;11.45;;;2.40;91.30;;;;;;5036395;28;19956;-84
2020/12/22 02:25:04;;;;;;;18.58;12.85;;;2.40;91.40;;;;;;5036301;28;20032;-84
2020/12/22 02:27:35;;;;;;;;;;;2.40;91.40;;;;;;5036214;28;20021;-85
2020/12/22 02:30:01;;;;;;;23.63;13.32;;;2.50;91.40;;;;;;5036554;28;19905;-83
2020/12/22 02:32:26;;;;;;;19.58;12.38;;;2.40;91.30;;;;;;5038435;28;20033;-83
2020/12/22 02:34:52;;;;;;;23.90;13.50;;;2.50;91.40;;;;;;5038422;28;20163;-84
2020/12/22 02:37:21;;;;;;;20.10;12.13;;;2.50;91.30;;;;;;5036058;28;20033;-83
2020/12/22 02:39:48;;;;;;;19.35;11.57;;;2.50;91.30;;;;;;5036251;28;20025;-84
2020/12/22 02:42:15;;;;;;;24.98;13.95;;;2.50;91.20;;;;;;5039999;28;20112;-85
2020/12/22 02:44:41;;;;;;;19.45;12.57;;;2.40;91.30;;;;;;5049441;28;20030;-84
2020/12/22 02:47:12;;;;;;;18.17;13.05;;;2.50;91.30;;;;;;5036458;28;20047;-85
2020/12/22 02:49:39;;;;;;;21.55;13.40;;;2.50;91.30;;;;;;5029967;28;20057;-83
2020/12/22 02:52:05;;;;;;;20.98;13.00;;;2.50;91.30;;;;;;5055351;28;20025;-84
2020/12/22 02:54:32;;;;;;;19.35;12.18;;;2.50;91.20;;;;;;5045899;28;20029;-84
2020/12/22 02:56:58;;;;;;;21.33;12.57;;;2.50;91.20;;;;;;5041736;28;20029;-83
2020/12/22 02:59:23;;;;;;;18.13;11.68;;;2.50;91.10;;;;;;5054326;28;20029;-81
2020/12/22 03:01:49;;;;;;;19.23;11.32;;;2.40;91.10;;;;;;5044287;28;20041;-83
2020/12/22 03:04:15;;;;;;;16.88;10.70;;;2.30;91.20;;;;;;5035346;28;20052;-84
2020/12/22 03:06:41;;;;;;;16.98;10.82;;;2.30;91.20;;;;;;5035136;28;20394;-83
2020/12/22 03:09:08;;;;;;;20.92;12.63;;;2.30;91.20;;;;;;5034903;28;20121;-82
2020/12/22 03:11:34;;;;;;;21.08;12.52;;;2.30;91.20;;;;;;5035070;28;20025;-83
2020/12/22 03:14:00;;;;;;;18.55;10.20;;;2.40;91.20;;;;;;5034363;28;20471;-81
2020/12/22 03:16:27;;;;;;;17.33;10.95;;;2.40;91.10;;;;;;5034755;28;20454;-83
2020/12/22 03:18:53;;;;;;;22.47;13.77;;;2.40;91.10;;;;;;5035166;28;20014;-82
2020/12/22 03:21:19;;;;;;;20.48;11.57;;;2.40;91.20;;;;;;5043137;28;20267;-83
2020/12/22 03:23:45;;;;;;;18.40;11.30;;;2.40;91.10;;;;;;5047812;28;20021;-83
2020/12/22 03:26:11;;;;;;;16.13;10.05;;;2.40;91.20;;;;;;5052993;28;20513;-84
2020/12/22 03:28:37;;;;;;;18.52;10.65;;;2.40;91.20;;;;;;5039273;28;20049;-84
2020/12/22 03:31:03;;;;;;;22.55;12.68;;;2.50;91.10;;;;;;5019739;28;20108;-86
2020/12/22 03:33:29;;;;;;;19.13;11.00;;;2.50;91.00;;;;;;5022536;28;20037;-84
2020/12/22 03:35:55;;;;;;;18.35;11.18;;;2.60;91.00;;;;;;5035398;28;20108;-84
2020/12/22 03:38:22;;;;;;;19.40;11.25;;;2.50;90.90;;;;;;5035418;28;20017;-86
2020/12/22 03:40:47;;;;;;;20.45;11.85;;;2.50;90.90;;;;;;5035161;28;20163;-85
2020/12/22 03:43:13;;;;;;;22.38;14.18;;;2.40;91.20;;;;;;5035113;28;20017;-85
2020/12/22 03:45:41;;;;;;;25.02;14.68;;;2.30;91.10;;;;;;5037320;28;20080;-85
2020/12/22 03:48:07;;;;;;;25.20;14.90;;;2.30;91.20;;;;;;5036626;28;20025;-85
2020/12/22 03:50:33;;;;;;;25.38;15.85;;;2.30;91.20;;;;;;5035651;28;20074;-85
2020/12/22 03:53:03;;;;;;;31.17;18.17;;;2.30;91.20;;;;;;5034478;28;20017;-85
2020/12/22 03:55:29;;;;;;;30.55;17.88;;;2.20;91.30;;;;;;5035079;28;20500;-85
2020/12/22 03:57:55;;;;;;;28.55;14.95;;;2.20;91.40;;;;;;5034737;28;20105;-84
2020/12/22 04:00:21;;;;;;;30.25;16.10;;;2.10;91.40;;;;;;5034001;28;20038;-81
2020/12/22 04:02:46;;;;;;;27.35;14.70;;;2.10;91.50;;;;;;5033830;28;20033;-81
2020/12/22 04:05:12;;;;;;;31.45;19.08;;;2.10;91.60;;;;;;5033724;28;20028;-83
2020/12/22 04:07:38;;;;;;;27.10;16.98;;;2.20;91.60;;;;;;5032801;28;20026;-82
2020/12/22 04:10:06;;;;;;;35.45;17.50;;;2.30;91.60;;;;;;5033749;28;20084;-83
2020/12/22 04:12:32;;;;;;;31.88;18.23;;;2.30;91.50;;;;;;5016055;28;20043;-84
2020/12/22 04:14:58;;;;;;;31.73;16.30;;;2.30;91.40;;;;;;5033770;28;20025;-83
2020/12/22 04:17:24;;;;;;;29.25;16.88;;;2.20;91.30;;;;;;5019071;28;20088;-84
2020/12/22 04:19:50;;;;;;;29.10;17.58;;;2.10;91.20;;;;;;5034085;28;20022;-83
2020/12/22 04:22:16;;;;;;;30.50;16.60;;;2.00;91.40;;;;;;5034973;28;20026;-83
2020/12/22 04:24:41;;;;;;;33.30;17.75;;;1.90;91.50;;;;;;5033722;28;20025;-83
2020/12/22 04:27:07;;;;;;;29.95;16.52;;;1.90;91.50;;;;;;5033820;28;20029;-84
2020/12/22 04:29:33;;;;;;;31.00;18.58;;;1.90;91.50;;;;;;5016090;28;20025;-83
2020/12/22 04:31:59;;;;;;;29.58;16.75;;;1.80;91.60;;;;;;5043022;28;20023;-84
2020/12/22 04:34:25;;;;;;;31.70;17.30;;;1.80;91.60;;;;;;5038594;28;20026;-85
2020/12/22 04:36:51;;;;;;;33.83;19.90;;;1.80;91.60;;;;;;5033871;28;20129;-84
2020/12/22 04:39:17;;;;;;;35.42;19.33;;;1.80;91.70;;;;;;5034199;28;20053;-84
2020/12/22 04:41:48;;;;;;;30.00;17.40;;;1.80;91.60;;;;;;5034337;28;20021;-84
2020/12/22 04:44:18;;;;;;;29.50;16.77;;;1.70;91.60;;;;;;5038512;28;20041;-84
2020/12/22 04:46:50;;;;;;;28.50;17.63;;;1.70;91.70;;;;;;5029782;28;20026;-85
2020/12/22 04:49:20;;;;;;;27.42;16.63;;;1.70;91.70;;;;;;5042509;28;20083;-84
2020/12/22 04:51:49;;;;;;;31.05;17.48;;;1.70;91.60;;;;;;5036320;28;20104;-85
2020/12/22 04:54:19;;;;;;;29.52;17.13;;;1.80;91.70;;;;;;5038887;28;20053;-84
2020/12/22 04:56:48;;;;;;;30.25;17.55;;;1.70;91.60;;;;;;5039927;28;20025;-84
2020/12/22 04:59:15;;;;;;;29.52;16.33;;;1.70;91.60;;;;;;5046612;28;20489;-82
2020/12/22 05:01:44;;;;;;;22.60;13.75;;;1.70;91.50;;;;;;5031108;28;20061;-84
2020/12/22 05:04:11;;;;;;;26.40;15.77;;;1.50;91.40;;;;;;5027718;28;20045;-84
2020/12/22 05:06:40;;;;;;;32.97;19.63;;;1.40;91.60;;;;;;5043163;28;20032;-85
2020/12/22 05:09:06;;;;;;;33.45;18.75;;;1.40;91.80;;;;;;5039118;28;20025;-84
2020/12/22 05:11:36;;;;;;;34.33;19.13;;;1.40;91.80;;;;;;5035093;28;20037;-84
2020/12/22 05:14:05;;;;;;;39.45;18.85;;;1.50;91.70;;;;;;5038227;28;20175;-83
2020/12/22 05:16:35;;;;;;;25.20;14.73;;;1.40;91.40;;;;;;5055376;28;20092;-84
2020/12/22 05:19:02;;;;;;;22.23;13.18;;;1.30;91.40;;;;;;5038222;28;20026;-83
2020/12/22 05:21:36;;;;;;;26.27;16.30;;;1.10;91.50;;;;;;5037531;28;20053;-86
2020/12/22 05:24:03;;;;;;;28.17;15.20;;;0.90;91.80;;;;;;5023828;28;20037;-83
2020/12/22 05:26:33;;;;;;;29.45;17.65;;;0.80;91.90;;;;;;5024736;28;20041;-83
2020/12/22 05:29:13;;;;;;;23.63;15.23;;;0.90;92.20;;;;;;5036361;28;20526;-84
2020/12/22 05:31:46;;;;;;;26.75;16.77;;;1.00;92.20;;;;;;5041239;28;20026;-85
2020/12/22 05:34:13;;;;;;;23.17;14.93;;;1.00;92.10;;;;;;5039525;28;20021;-84
2020/12/22 05:36:40;;;;;;;24.13;14.55;;;1.00;92.00;;;;;;5040991;28;20033;-86
2020/12/22 05:39:11;;;;;;;24.52;12.98;;;1.10;91.90;;;;;;5044615;28;20089;-83
2020/12/22 05:41:38;;;;;;;21.88;13.00;;;1.10;91.70;;;;;;5039929;28;20088;-83
2020/12/22 05:44:04;;;;;;;22.98;13.88;;;1.10;91.60;;;;;;5038353;28;20051;-86
2020/12/22 05:46:33;;;;;;;20.38;12.82;;;1.10;91.60;;;;;;5047304;28;20048;-82
2020/12/22 05:49:04;;;;;;;20.38;13.23;;;1.10;91.50;;;;;;5052736;28;20025;-84
2020/12/22 05:51:31;;;;;;;22.55;12.82;;;1.10;91.50;;;;;;5039182;28;20025;-83
2020/12/22 05:54:06;;;;;;;22.63;13.43;;;1.10;91.40;;;;;;5021649;28;20513;-83
2020/12/22 05:56:33;;;;;;;22.45;14.45;;;1.10;91.50;;;;;;5022193;28;20185;-85
2020/12/22 05:58:59;;;;;;;22.55;14.73;;;1.10;91.50;;;;;;5038122;28;20406;-83
2020/12/22 06:01:32;;;;;;;24.00;15.93;;;1.10;91.40;;;;;;5036149;28;20437;-84
2020/12/22 06:04:00;;;;;;;20.50;13.13;;;1.20;91.30;;;;;;5038755;28;20081;-85
2020/12/22 06:06:27;;;;;;;24.02;15.98;;;1.10;91.10;;;;;;5039603;28;20034;-86
2020/12/22 06:08:57;;;;;;;22.73;13.20;;;1.10;91.10;;;;;;5040264;28;20025;-84
2020/12/22 06:11:23;;;;;;;22.75;14.07;;;1.10;91.10;;;;;;5045363;28;20053;-85
2020/12/22 06:13:52;;;;;;;21.35;13.68;;;1.10;91.00;;;;;;5019239;28;20025;-86
2020/12/22 06:16:22;;;;;;;19.23;12.95;;;1.10;90.90;;;;;;5028239;28;20048;-87
2020/12/22 06:18:51;;;;;;;21.48;13.02;;;1.10;90.80;;;;;;5022827;28;20024;-88
2020/12/22 06:21:21;;;;;;;17.02;12.70;;;1.20;90.70;;;;;;5041371;28;20052;-86
2020/12/22 06:23:49;;;;;;;20.35;13.90;;;1.10;90.60;;;;;;5036982;28;20032;-86
2020/12/22 06:26:18;;;;;;;;;;;1.10;90.60;;;;;;5040767;28;20032;-85
2020/12/22 06:28:44;;;;;;;18.27;11.18;;;1.10;90.60;;;;;;5044707;28;20290;-90
2020/12/22 06:31:21;;;;;;;17.58;12.10;;;1.10;90.50;;;;;;5047686;28;20041;-87
2020/12/22 06:33:49;;;;;;;19.90;13.60;;;1.20;90.40;;;;;;5039403;28;20029;-86
2020/12/22 06:36:19;;;;;;;22.17;14.00;;;1.20;90.30;;;;;;5007599;28;20131;-84
2020/12/22 06:38:49;;;;;;;15.63;11.35;;;1.20;90.20;;;;;;5034205;28;20470;-86
2020/12/22 06:41:33;;;;;;;19.92;12.98;;;1.20;90.20;;;;;;5023162;28;20032;-87
2020/12/22 06:44:17;;;;;;;20.15;12.73;;;1.20;90.00;;;;;;5016570;28;20034;-86
2020/12/22 06:46:45;;;;;;;20.77;12.82;;;1.20;90.00;;;;;;4996434;28;20036;-90
2020/12/22 06:49:11;;;;;;;19.42;11.48;;;1.20;89.90;;;;;;4995255;28;20704;-86
2020/12/22 06:51:42;;;;;;;20.88;13.73;;;1.10;89.80;;;;;;5022493;28;20122;-89
2020/12/22 06:54:13;;;;;;;20.33;12.57;;;1.10;89.80;;;;;;5015983;28;20439;-89
2020/12/22 06:56:47;;;;;;;19.58;12.57;;;1.10;89.60;;;;;;4998732;28;20049;-88
2020/12/22 06:59:34;;;;;;;15.93;10.75;;;1.10;89.50;;;;;;4997864;28;20018;-86
2020/12/22 07:02:00;;;;;;;18.00;12.50;;;1.00;89.20;;;;;;5016324;28;20034;-89
2020/12/22 07:04:26;;;;;;;18.80;13.10;;;1.00;89.70;;;;;;5005316;28;20468;-89
2020/12/22 07:06:58;;;;;;;19.58;12.90;;;1.00;89.80;;;;;;5017613;28;20053;-88
2020/12/22 07:09:32;;;;;;;18.20;12.38;;;1.00;89.60;;;;;;5022458;28;20123;-89
2020/12/22 07:12:11;;;;;;;22.88;13.45;;;1.10;89.50;;;;;;5016494;28;20399;-89
2020/12/22 07:14:48;;;;;;;18.50;11.55;;;1.00;89.30;;;;;;5014043;28;20042;-88
2020/12/22 07:17:18;;;;;;;15.70;10.27;;;0.80;89.00;;;;;;5002498;28;20121;-89
2020/12/22 07:19:48;;;;;;;20.00;11.50;;;0.60;89.30;;;;;;5026064;28;20022;-89
2020/12/22 07:22:16;;;;;;;18.23;12.10;;;0.50;89.60;;;;;;5020601;28;20080;-89
2020/12/22 07:24:43;;;;;;;17.67;11.48;;;0.40;89.80;;;;;;5046304;28;20018;-88
2020/12/22 07:27:09;;;;;;;17.20;10.40;;;0.30;90.10;;;;;;5029304;28;20022;-87
2020/12/22 07:29:42;;;;;;;15.88;11.52;;;0.30;90.00;;;;;;5041023;28;20573;-89
2020/12/22 07:32:11;;;;;;;17.77;10.68;;;0.30;90.20;;;;;;5040683;28;20013;-88
2020/12/22 07:34:38;;;;;;;17.65;10.15;;;0.40;90.20;;;;;;5022845;28;20025;-91
2020/12/22 07:37:11;;;;;;;14.68;10.43;;;0.40;90.20;;;;;;5042801;28;20041;-88
2020/12/22 07:39:38;;;;;;;17.02;11.88;;;0.40;90.10;;;;;;5040397;28;20001;-89
2020/12/22 07:42:19;;;;;;;21.23;12.98;;;0.30;90.10;;;;;;5023853;28;20383;-89
2020/12/22 07:44:47;;;;;;;18.27;11.75;;;0.30;90.20;;;;;;5046653;28;20013;-87
2020/12/22 07:47:13;;;;;;;18.25;11.82;;;0.30;90.20;;;;;;5050493;28;20053;-87
2020/12/22 07:49:41;;;;;;;24.13;14.57;;;0.20;90.00;;;;;;5050147;28;20072;-88
2020/12/22 07:52:09;;;;;;;19.40;13.55;;;0.10;90.30;;;;;;5040705;28;20021;-89
2020/12/22 07:54:35;;;;;;;18.45;11.85;;;0.20;90.60;;;;;;5022913;28;20121;-89
2020/12/22 07:57:01;;;;;;;21.58;13.18;;;0.10;90.40;;;;;;5047929;28;20037;-91
2020/12/22 07:59:27;;;;;;;15.65;10.85;;;0.10;90.50;;;;;;5039616;28;20024;-94
2020/12/22 08:01:55;;;;;;;16.10;10.07;;;0.10;90.50;;;;;;5004387;28;20029;-88
2020/12/22 08:04:23;;;;;;;16.42;10.10;;;0.10;90.30;;;;;;5032371;28;20053;-90
2020/12/22 08:06:57;;;;;;;13.38;9.25;;;0.10;90.40;;;;;;5023851;28;20022;-89
2020/12/22 08:09:39;;;;;;;12.23;7.68;;;0.10;90.30;;;;;;5031362;28;20036;-87
2020/12/22 08:12:07;;;;;;;12.32;8.35;;;0.00;90.10;;;;;;5045814;28;20025;-89
2020/12/22 08:14:36;;;;;;;10.60;7.13;;;-0.10;90.20;;;;;;5040445;28;20104;-89
2020/12/22 08:17:06;;;;;;;13.25;8.05;;;0.00;90.20;;;;;;5033168;28;20040;-90
2020/12/22 08:19:37;;;;;;;9.98;5.70;;;-0.10;90.20;;;;;;5021703;28;20470;-89
2020/12/22 08:22:06;;;;;;;15.68;8.50;;;-0.20;89.90;;;;;;5038756;28;20026;-88
2020/12/22 08:24:36;;;;;;;11.20;6.57;;;-0.40;90.00;;;;;;5017670;28;20021;-88
2020/12/22 08:27:02;;;;;;;10.25;6.90;;;-0.50;90.30;;;;;;5042777;28;20081;-88
2020/12/22 08:29:31;;;;;;;10.50;6.65;;;-0.60;90.40;;;;;;5022071;28;20056;-87
2020/12/22 08:32:01;;;;;;;10.52;7.05;;;-0.70;90.40;;;;;;5039496;28;20075;-89
2020/12/22 08:34:28;;;;;;;12.32;6.78;;;-0.70;90.50;;;;;;5035664;28;20386;-86
2020/12/22 08:36:54;;;;;;;13.68;8.48;;;-0.70;90.50;;;;;;5019965;28;20087;-88
2020/12/22 08:39:25;;;;;;;8.43;4.83;;;-0.80;90.40;;;;;;5037635;28;20123;-88
2020/12/22 08:41:53;;;;;;;9.55;6.68;;;-0.80;90.40;;;;;;5035327;28;20025;-90
2020/12/22 08:44:19;;;;;;;;;;;-0.90;90.40;;;;;;5019443;28;20146;-91
2020/12/22 08:46:45;;;;;;;7.13;4.82;;;-1.00;90.40;;;;;;5036956;28;19952;-89
2020/12/22 08:49:25;;;;;;;10.53;6.53;;;-1.10;90.40;;;;;;5038397;28;20040;-88
2020/12/22 08:51:51;;;;;;;13.65;7.20;;;-1.10;90.60;;;;;;5037445;28;20028;-88
2020/12/22 08:54:17;;;;;;;11.90;8.32;;;-1.10;90.60;;;;;;5018049;28;20037;-88
2020/12/22 08:56:43;;;;;;;11.15;7.15;;;-1.00;90.60;;;;;;5035554;28;20037;-88
2020/12/22 08:59:13;;;;;;;11.27;8.10;;;-1.00;90.60;;;;;;5035886;28;20013;-89
2020/12/22 09:01:47;;;;;;;11.65;6.50;;;-1.00;90.70;;;;;;5035067;28;20085;-89
2020/12/22 09:04:14;;;;;;;10.85;6.88;;;-0.90;90.40;;;;;;5017167;28;20092;-89
2020/12/22 09:06:43;;;;;;;9.23;6.43;;;-1.00;90.60;;;;;;5040520;28;20374;-89
2020/12/22 09:09:17;;;;;;;11.18;7.30;;;-1.00;90.60;;;;;;5035977;28;20033;-89
2020/12/22 09:11:47;;;;;;;12.55;6.80;;;-0.90;90.60;;;;;;5035284;28;20026;-89
2020/12/22 09:14:17;;;;;;;11.82;7.50;;;-1.00;90.60;;;;;;5034871;28;20024;-87
2020/12/22 09:16:55;;;;;;;11.80;8.60;;;-1.10;90.50;;;;;;5047103;28;20029;-87
2020/12/22 09:19:29;;;;;;;14.15;9.65;;;-1.10;90.70;;;;;;5035300;28;20013;-89
2020/12/22 09:22:02;;;;;;;12.80;8.82;;;-1.10;90.80;;;;;;5038322;28;20339;-88
2020/12/22 09:24:29;;;;;;;13.43;9.23;;;-1.10;91.00;;;;;;5018950;28;20104;-87
2020/12/22 09:27:14;;;;;;;13.00;8.33;;;-1.10;90.90;;;;;;5016695;28;20034;-89
2020/12/22 09:29:43;;;;;;;11.35;6.90;;;-1.00;91.00;;;;;;5049600;28;20136;-90
2020/12/22 09:32:10;;;;;;;11.40;8.40;;;-1.00;91.00;;;;;;5025357;28;20057;-87
2020/12/22 09:34:38;;;;;;;7.80;5.30;;;-1.00;90.90;;;;;;5035411;28;20065;-88
2020/12/22 09:37:05;;;;;;;;;;;-1.10;90.60;;;;;;5040178;28;20038;-91
2020/12/22 09:39:32;;;;;;;11.23;6.78;;;-1.20;90.70;;;;;;5017763;28;19905;-90
2020/12/22 09:41:59;;;;;;;10.60;7.07;;;-1.30;90.50;;;;;;5037324;28;20123;-88
2020/12/22 09:44:25;;;;;;;13.03;8.60;;;-1.30;90.70;;;;;;5042673;28;20030;-88
2020/12/22 09:46:53;;;;;;;13.77;8.52;;;-1.30;90.80;;;;;;5052751;28;20073;-88
2020/12/22 09:49:20;;;;;;;11.40;8.43;;;-1.30;90.60;;;;;;5052637;28;20009;-87
2020/12/22 09:51:46;;;;;;;12.55;7.80;;;-1.30;90.70;;;;;;5052320;28;20021;-88
2020/12/22 09:54:12;;;;;;;13.98;7.28;;;-1.20;90.70;;;;;;5021970;28;20037;-88
2020/12/22 09:56:39;;;;;;;8.43;6.05;;;-1.20;90.40;;;;;;5036620;28;20034;-88
2020/12/22 09:59:05;;;;;;;10.75;7.20;;;-1.30;90.20;;;;;;5037738;28;20041;-87
2020/12/22 10:01:31;;;;;;;11.55;6.93;;;-1.40;90.30;;;;;;5043278;28;20026;-86
2020/12/22 10:03:57;;;;;;;10.65;7.38;;;-1.40;90.50;;;;;;5037968;28;20051;-88
2020/12/22 10:06:24;;;;;;;14.20;7.97;;;-1.40;90.40;;;;;;5019871;28;20108;-88
2020/12/22 10:08:51;;;;;;;;;;;-1.50;90.40;;;;;;5016738;28;20490;-88
2020/12/22 10:11:17;;;;;;;13.20;8.30;;;-1.40;90.60;;;;;;5017884;28;19905;-89
2020/12/22 10:13:43;;;;;;;13.93;8.60;;;-1.40;90.50;;;;;;5039465;28;20009;-88
2020/12/22 10:16:13;;;;;;;16.95;9.57;;;-1.40;90.50;;;;;;5054136;28;20354;-88
2020/12/22 10:18:40;;;;;;;13.93;9.73;;;-1.20;90.60;;;;;;5041164;28;20327;-90
2020/12/22 10:21:08;;;;;;;12.52;8.63;;;-1.10;90.40;;;;;;5038899;28;20025;-89
2020/12/22 10:23:35;;;;;;;11.70;8.77;;;-1.10;90.20;;;;;;5041759;28;20386;-88
2020/12/22 10:26:05;;;;;;;13.23;8.00;;;-1.20;89.80;;;;;;5026554;28;20104;-89
2020/12/22 10:28:33;;;;;;;12.77;8.07;;;-1.30;90.00;;;;;;5035825;28;20034;-87
2020/12/22 10:30:59;;;;;;;13.00;9.23;;;-1.30;90.20;;;;;;5039588;28;20486;-90
2020/12/22 10:33:25;;;;;;;12.52;8.45;;;-1.30;90.20;;;;;;5040882;28;20032;-89
2020/12/22 10:35:51;;;;;;;14.07;9.45;;;-1.30;90.20;;;;;;5040016;28;20030;-90
2020/12/22 10:38:17;;;;;;;10.48;7.22;;;-1.30;90.10;;;;;;5037537;28;20017;-89
2020/12/22 10:40:43;;;;;;;12.02;8.45;;;-1.30;90.10;;;;;;5038413;28;20133;-87
2020/12/22 10:43:09;;;;;;;11.68;7.00;;;-1.20;90.10;;;;;;5019629;28;20045;-89
2020/12/22 10:45:36;;;;;;;12.48;8.32;;;-1.20;90.10;;;;;;5041450;28;20040;-90
2020/12/22 10:48:02;;;;;;;10.48;7.15;;;-1.10;89.90;;;;;;5039261;28;20025;-89
2020/12/22 10:50:28;;;;;;;13.48;8.93;;;-1.00;89.50;;;;;;5038963;28;20097;-91
2020/12/22 10:52:54;;;;;;;12.68;8.10;;;-1.00;89.00;;;;;;5025576;28;20024;-88
2020/12/22 10:55:20;;;;;;;12.27;8.32;;;-1.00;88.60;;;;;;5024570;28;20022;-89
2020/12/22 10:57:46;;;;;;;11.13;7.50;;;-1.00;88.40;;;;;;5043804;28;20066;-89
2020/12/22 11:00:12;;;;;;;12.75;7.97;;;-1.20;87.70;;;;;;5044265;28;20021;-88
2020/12/22 11:02:39;;;;;;;14.45;9.07;;;-1.30;87.90;;;;;;5046640;28;20032;-89
2020/12/22 11:05:05;;;;;;;15.20;8.82;;;-1.30;88.00;;;;;;5040099;28;20049;-89
2020/12/22 11:07:46;;;;;;;13.90;8.80;;;-1.30;87.90;;;;;;5026413;28;20479;-90
2020/12/22 11:10:12;;;;;;;12.73;8.45;;;-1.20;88.10;;;;;;5036724;28;20032;-89
2020/12/22 11:12:39;;;;;;;13.45;8.23;;;-1.20;88.10;;;;;;5019237;28;20394;-89
2020/12/22 11:15:05;;;;;;;14.05;8.85;;;-1.20;87.90;;;;;;5020060;28;20095;-88
2020/12/22 11:17:30;;;;;;;15.77;9.75;;;-1.20;88.30;;;;;;5033792;28;20494;-89
2020/12/22 11:19:56;;;;;;;10.32;6.68;;;-1.30;88.00;;;;;;5042580;28;20431;-90
2020/12/22 11:22:22;;;;;;;14.07;7.85;;;-1.20;88.40;;;;;;5042593;28;20056;-91
2020/12/22 11:24:48;;;;;;;14.43;7.15;;;-1.20;88.20;;;;;;5052337;28;20020;-90
2020/12/22 11:27:14;;;;;;;11.85;7.55;;;-1.20;88.20;;;;;;5020515;28;20029;-89
2020/12/22 11:29:40;;;;;;;13.57;8.65;;;-1.20;87.80;;;;;;5019017;28;20409;-87
2020/12/22 11:32:05;;;;;;;12.20;7.95;;;-1.20;87.80;;;;;;5019929;28;20075;-90
2020/12/22 11:34:31;;;;;;;7.57;5.70;;;-1.20;87.90;;;;;;5039642;28;20427;-91
2020/12/22 11:36:57;;;;;;;9.75;6.57;;;-1.30;87.20;;;;;;5017480;28;20489;-89
2020/12/22 11:39:23;;;;;;;10.60;7.78;;;-1.40;87.60;;;;;;5037140;28;20021;-90
2020/12/22 11:41:49;;;;;;;9.38;6.40;;;-1.40;88.30;;;;;;5023054;28;20021;-90
2020/12/22 11:44:15;;;;;;;15.48;6.55;;;-1.30;88.20;;;;;;5045582;28;20036;-90
2020/12/22 11:46:45;;;;;;;13.50;8.30;;;-1.40;87.60;;;;;;5023777;28;20044;-90
2020/12/22 11:49:12;;;;;;;11.60;7.50;;;-1.40;87.80;;;;;;5017925;28;20021;-89
2020/12/22 11:51:39;;;;;;;12.00;7.63;;;-1.40;87.80;;;;;;5025233;28;20104;-91
2020/12/22 11:54:05;;;;;;;7.60;4.80;;;-1.40;87.60;;;;;;5040018;28;20061;-88
2020/12/22 11:56:31;;;;;;;9.45;6.20;;;-1.50;87.20;;;;;;5042410;28;20371;-91
2020/12/22 11:58:57;;;;;;;13.93;7.05;;;-1.70;88.00;;;;;;5037809;28;20053;-88
2020/12/22 12:01:30;;;;;;;9.95;7.25;;;-1.80;88.40;;;;;;5038154;28;20025;-90
2020/12/22 12:03:56;;;;;;;11.77;6.75;;;-1.80;88.80;;;;;;5039572;28;20111;-89
2020/12/22 12:06:23;;;;;;;11.75;7.43;;;-1.80;88.80;;;;;;5042166;28;20036;-88
2020/12/22 12:08:49;;;;;;;8.32;5.35;;;-1.70;89.00;;;;;;5047711;28;20087;-88
2020/12/22 12:11:15;;;;;;;9.38;6.63;;;-1.70;88.90;;;;;;5046640;28;20087;-89
2020/12/22 12:13:41;;;;;;;9.45;6.57;;;-1.80;89.00;;;;;;5048905;28;20033;-90
2020/12/22 12:16:07;;;;;;;11.23;7.32;;;-1.90;89.60;;;;;;5027480;28;20105;-88
2020/12/22 12:18:34;;;;;;;8.43;6.25;;;-1.80;89.80;;;;;;5020114;28;20045;-88
2020/12/22 12:21:00;;;;;;;14.15;9.82;;;-1.80;89.60;;;;;;5036614;28;20041;-89
2020/12/22 12:23:27;;;;;;;11.75;8.35;;;-1.80;89.60;;;;;;5019550;28;20029;-88
2020/12/22 12:25:53;;;;;;;14.02;8.27;;;-1.80;89.20;;;;;;5019720;28;20068;-89
2020/12/22 12:28:20;;;;;;;9.87;7.37;;;-1.80;89.10;;;;;;5045092;28;20067;-89
2020/12/22 12:30:47;;;;;;;15.70;10.40;;;-1.90;89.10;;;;;;5045675;28;20258;-89
2020/12/22 12:33:13;;;;;;;14.80;8.35;;;-1.90;89.40;;;;;;5037118;28;20104;-89
2020/12/22 12:35:39;;;;;;;13.90;8.38;;;-1.90;89.40;;;;;;5029109;28;20017;-88
2020/12/22 12:38:05;;;;;;;11.15;7.85;;;-1.80;89.20;;;;;;5020190;28;20075;-91
2020/12/22 12:40:31;;;;;;;11.20;7.75;;;-1.90;89.10;;;;;;5035661;28;20033;-91
2020/12/22 12:42:57;;;;;;;13.48;7.70;;;-1.80;89.30;;;;;;5033289;28;20067;-92